sensor_id;sensor_type;location;lat;lon;timestamp;pressure;altitude;pressure_sealevel;temperature;humidity
61769;BME280;47669;48.712;9.016;2023-01-15T00:01:29;95455.69;;;7.56;nan
61769;BME280;47669;48.712;9.016;2023-01-15T00:03:56;95436.00;;;7.65;nan
61769;BME280;47669;48.712;9.016;2023-01-15T00:06:24;95428.94;;;7.66;nan
61769;BME280;47669;48.712;9.016;2023-01-15T00:08:50;95434.38;;;7.64;nan
61769;BME280;47669;48.712;9.016;2023-01-15T00:11:16;95425.66;;;7.70;nan
61769;BME280;47669;48.712;9.016;2023-01-15T00:13:42;95417.31;;;7.74;nan
61769;BME280;47669;48.712;9.016;2023-01-15T00:16:10;95417.19;;;7.68;nan
61769;BME280;47669;48.712;9.016;2023-01-15T00:18:36;95421.28;;;7.76;nan
61769;BME280;47669;48.712;9.016;2023-01-15T00:21:03;95418.56;;;7.83;nan
61769;BME280;47669;48.712;9.016;2023-01-15T00:23:29;95421.84;;;7.78;nan
61769;BME280;47669;48.712;9.016;2023-01-15T00:26:15;95415.25;;;7.76;nan
61769;BME280;47669;48.712;9.016;2023-01-15T00:28:59;95408.31;;;7.81;nan
61769;BME280;47669;48.712;9.016;2023-01-15T00:31:25;95408.31;;;7.93;nan
61769;BME280;47669;48.712;9.016;2023-01-15T00:33:51;95409.00;;;7.88;nan
61769;BME280;47669;48.712;9.016;2023-01-15T00:36:16;95393.84;;;7.90;nan
61769;BME280;47669;48.712;9.016;2023-01-15T00:38:41;95394.63;;;7.91;nan
61769;BME280;47669;48.712;9.016;2023-01-15T00:41:07;95381.88;;;7.95;nan
61769;BME280;47669;48.712;9.016;2023-01-15T00:43:32;95385.63;;;7.99;nan
61769;BME280;47669;48.712;9.016;2023-01-15T00:45:57;95380.16;;;8.00;nan
61769;BME280;47669;48.712;9.016;2023-01-15T00:48:22;95383.00;;;7.99;nan
61769;BME280;47669;48.712;9.016;2023-01-15T00:50:48;95378.09;;;8.02;nan
61769;BME280;47669;48.712;9.016;2023-01-15T00:53:13;95378.44;;;8.06;nan
61769;BME280;47669;48.712;9.016;2023-01-15T00:55:38;95364.50;;;8.05;nan
61769;BME280;47669;48.712;9.016;2023-01-15T00:58:03;95364.28;;;8.07;nan
61769;BME280;47669;48.712;9.016;2023-01-15T01:00:29;95357.00;;;8.09;nan
61769;BME280;47669;48.712;9.016;2023-01-15T01:02:55;95345.91;;;8.19;nan
61769;BME280;47669;48.712;9.016;2023-01-15T01:05:20;95342.28;;;8.20;nan
61769;BME280;47669;48.712;9.016;2023-01-15T01:07:46;95343.59;;;8.34;nan
61769;BME280;47669;48.712;9.016;2023-01-15T01:10:11;95336.63;;;8.40;nan
61769;BME280;47669;48.712;9.016;2023-01-15T01:12:36;95332.63;;;8.37;nan
61769;BME280;47669;48.712;9.016;2023-01-15T01:15:02;95320.69;;;8.41;nan
61769;BME280;47669;48.712;9.016;2023-01-15T01:17:27;95318.38;;;8.45;nan
61769;BME280;47669;48.712;9.016;2023-01-15T01:19:53;95312.44;;;8.38;nan
61769;BME280;47669;48.712;9.016;2023-01-15T01:22:18;95315.94;;;8.55;nan
61769;BME280;47669;48.712;9.016;2023-01-15T01:24:43;95305.44;;;8.55;nan
61769;BME280;47669;48.712;9.016;2023-01-15T01:27:08;95303.59;;;8.56;nan
61769;BME280;47669;48.712;9.016;2023-01-15T01:29:34;95317.38;;;8.63;nan
61769;BME280;47669;48.712;9.016;2023-01-15T01:31:59;95319.44;;;8.61;nan
61769;BME280;47669;48.712;9.016;2023-01-15T01:34:24;95318.72;;;8.65;nan
61769;BME280;47669;48.712;9.016;2023-01-15T01:36:50;95325.75;;;8.77;nan
61769;BME280;47669;48.712;9.016;2023-01-15T01:39:18;95320.03;;;8.80;nan
61769;BME280;47669;48.712;9.016;2023-01-15T01:41:44;95295.38;;;8.81;nan
61769;BME280;47669;48.712;9.016;2023-01-15T01:46:58;95294.91;;;8.84;nan
61769;BME280;47669;48.712;9.016;2023-01-15T01:49:24;95293.22;;;8.95;nan
61769;BME280;47669;48.712;9.016;2023-01-15T01:51:54;95295.47;;;9.03;nan
61769;BME280;47669;48.712;9.016;2023-01-15T01:54:24;95282.81;;;9.00;nan
61769;BME280;47669;48.712;9.016;2023-01-15T01:56:50;95284.56;;;8.94;nan
61769;BME280;47669;48.712;9.016;2023-01-15T01:59:17;95275.97;;;8.99;nan
61769;BME280;47669;48.712;9.016;2023-01-15T02:01:44;95261.25;;;8.98;nan
61769;BME280;47669;48.712;9.016;2023-01-15T02:04:09;95275.72;;;9.00;nan
61769;BME280;47669;48.712;9.016;2023-01-15T02:06:36;95269.53;;;9.06;nan
61769;BME280;47669;48.712;9.016;2023-01-15T02:09:03;95270.41;;;8.95;nan
61769;BME280;47669;48.712;9.016;2023-01-15T02:11:29;95275.59;;;9.07;nan
61769;BME280;47669;48.712;9.016;2023-01-15T02:14:09;95261.25;;;8.98;nan
61769;BME280;47669;48.712;9.016;2023-01-15T02:16:44;95253.22;;;9.04;nan
61769;BME280;47669;48.712;9.016;2023-01-15T02:19:26;95259.50;;;9.03;nan
61769;BME280;47669;48.712;9.016;2023-01-15T02:24:43;95259.84;;;8.90;nan
61769;BME280;47669;48.712;9.016;2023-01-15T02:27:30;95246.88;;;8.83;nan
61769;BME280;47669;48.712;9.016;2023-01-15T02:30:11;95244.97;;;8.79;nan
61769;BME280;47669;48.712;9.016;2023-01-15T02:32:45;95243.84;;;8.75;nan
61769;BME280;47669;48.712;9.016;2023-01-15T02:35:18;95242.34;;;8.79;nan
61769;BME280;47669;48.712;9.016;2023-01-15T02:37:47;95244.50;;;8.82;nan
61769;BME280;47669;48.712;9.016;2023-01-15T02:40:16;95246.38;;;8.86;nan
61769;BME280;47669;48.712;9.016;2023-01-15T02:42:44;95245.28;;;8.82;nan
61769;BME280;47669;48.712;9.016;2023-01-15T02:45:12;95241.13;;;8.86;nan
61769;BME280;47669;48.712;9.016;2023-01-15T02:47:40;95245.50;;;8.81;nan
61769;BME280;47669;48.712;9.016;2023-01-15T02:50:11;95229.75;;;8.81;nan
61769;BME280;47669;48.712;9.016;2023-01-15T02:52:43;95234.06;;;8.87;nan
61769;BME280;47669;48.712;9.016;2023-01-15T02:55:17;95228.41;;;8.95;nan
61769;BME280;47669;48.712;9.016;2023-01-15T02:57:45;95217.13;;;9.34;nan
61769;BME280;47669;48.712;9.016;2023-01-15T03:00:13;95224.72;;;9.30;nan
61769;BME280;47669;48.712;9.016;2023-01-15T03:02:45;95219.28;;;9.59;nan
61769;BME280;47669;48.712;9.016;2023-01-15T03:05:17;95217.19;;;9.61;nan
61769;BME280;47669;48.712;9.016;2023-01-15T03:07:54;95210.53;;;9.53;nan
61769;BME280;47669;48.712;9.016;2023-01-15T03:10:35;95215.00;;;9.75;nan
61769;BME280;47669;48.712;9.016;2023-01-15T03:13:03;95218.06;;;9.66;nan
61769;BME280;47669;48.712;9.016;2023-01-15T03:15:55;95208.22;;;9.79;nan
61769;BME280;47669;48.712;9.016;2023-01-15T03:18:49;95199.50;;;9.73;nan
61769;BME280;47669;48.712;9.016;2023-01-15T03:21:16;95212.00;;;9.66;nan
61769;BME280;47669;48.712;9.016;2023-01-15T03:23:46;95209.94;;;9.68;nan
61769;BME280;47669;48.712;9.016;2023-01-15T03:26:13;95216.78;;;9.69;nan
61769;BME280;47669;48.712;9.016;2023-01-15T03:28:39;95201.56;;;9.71;nan
61769;BME280;47669;48.712;9.016;2023-01-15T03:31:05;95200.50;;;9.72;nan
61769;BME280;47669;48.712;9.016;2023-01-15T03:33:31;95200.06;;;9.80;nan
61769;BME280;47669;48.712;9.016;2023-01-15T03:35:58;95190.16;;;9.87;nan
61769;BME280;47669;48.712;9.016;2023-01-15T03:38:26;95200.41;;;9.62;nan
61769;BME280;47669;48.712;9.016;2023-01-15T03:52:00;95185.06;;;9.76;nan
61769;BME280;47669;48.712;9.016;2023-01-15T03:54:36;95181.34;;;9.72;nan
61769;BME280;47669;48.712;9.016;2023-01-15T03:57:11;95162.50;;;9.80;nan
61769;BME280;47669;48.712;9.016;2023-01-15T03:59:45;95181.75;;;9.85;nan
61769;BME280;47669;48.712;9.016;2023-01-15T04:02:14;95184.38;;;9.85;nan
61769;BME280;47669;48.712;9.016;2023-01-15T04:04:42;95176.28;;;9.92;nan
61769;BME280;47669;48.712;9.016;2023-01-15T04:07:09;95169.91;;;9.83;nan
61769;BME280;47669;48.712;9.016;2023-01-15T04:09:38;95157.78;;;9.82;nan
61769;BME280;47669;48.712;9.016;2023-01-15T04:12:05;95155.25;;;9.92;nan
61769;BME280;47669;48.712;9.016;2023-01-15T04:14:31;95163.78;;;9.77;nan
61769;BME280;47669;48.712;9.016;2023-01-15T04:16:57;95164.38;;;9.84;nan
61769;BME280;47669;48.712;9.016;2023-01-15T04:19:22;95142.84;;;9.87;nan
61769;BME280;47669;48.712;9.016;2023-01-15T04:21:47;95143.09;;;9.86;nan
61769;BME280;47669;48.712;9.016;2023-01-15T04:24:13;95138.91;;;9.85;nan
61769;BME280;47669;48.712;9.016;2023-01-15T04:26:38;95141.56;;;9.90;nan
61769;BME280;47669;48.712;9.016;2023-01-15T04:29:03;95145.47;;;9.87;nan
61769;BME280;47669;48.712;9.016;2023-01-15T04:31:29;95144.94;;;9.85;nan
61769;BME280;47669;48.712;9.016;2023-01-15T04:33:56;95143.69;;;9.93;nan
61769;BME280;47669;48.712;9.016;2023-01-15T04:36:22;95144.47;;;9.89;nan
61769;BME280;47669;48.712;9.016;2023-01-15T04:38:47;95149.16;;;9.86;nan
61769;BME280;47669;48.712;9.016;2023-01-15T04:41:12;95141.56;;;9.90;nan
61769;BME280;47669;48.712;9.016;2023-01-15T04:43:56;95147.56;;;9.85;nan
61769;BME280;47669;48.712;9.016;2023-01-15T04:46:30;95146.41;;;9.76;nan
61769;BME280;47669;48.712;9.016;2023-01-15T04:48:56;95151.44;;;9.78;nan
61769;BME280;47669;48.712;9.016;2023-01-15T04:51:21;95153.22;;;9.72;nan
61769;BME280;47669;48.712;9.016;2023-01-15T04:53:46;95150.78;;;9.65;nan
61769;BME280;47669;48.712;9.016;2023-01-15T04:56:12;95152.97;;;9.74;nan
61769;BME280;47669;48.712;9.016;2023-01-15T04:58:37;95149.59;;;9.78;nan
61769;BME280;47669;48.712;9.016;2023-01-15T05:01:02;95151.88;;;9.70;nan
61769;BME280;47669;48.712;9.016;2023-01-15T05:03:30;95150.03;;;9.70;nan
61769;BME280;47669;48.712;9.016;2023-01-15T05:06:00;95157.16;;;9.75;nan
61769;BME280;47669;48.712;9.016;2023-01-15T05:08:26;95159.78;;;9.75;nan
61769;BME280;47669;48.712;9.016;2023-01-15T05:10:51;95155.13;;;9.77;nan
61769;BME280;47669;48.712;9.016;2023-01-15T05:13:17;95149.72;;;9.66;nan
61769;BME280;47669;48.712;9.016;2023-01-15T05:15:42;95146.63;;;9.70;nan
61769;BME280;47669;48.712;9.016;2023-01-15T05:18:10;95144.22;;;9.68;nan
61769;BME280;47669;48.712;9.016;2023-01-15T05:20:42;95145.00;;;9.68;nan
61769;BME280;47669;48.712;9.016;2023-01-15T05:23:07;95155.50;;;9.63;nan
61769;BME280;47669;48.712;9.016;2023-01-15T05:25:35;95169.09;;;9.60;nan
61769;BME280;47669;48.712;9.016;2023-01-15T05:28:00;95211.94;;;9.39;nan
61769;BME280;47669;48.712;9.016;2023-01-15T05:30:26;95236.44;;;8.26;nan
61769;BME280;47669;48.712;9.016;2023-01-15T05:32:51;95256.31;;;7.17;nan
61769;BME280;47669;48.712;9.016;2023-01-15T05:35:16;95269.59;;;6.68;nan
61769;BME280;47669;48.712;9.016;2023-01-15T05:37:41;95264.53;;;6.43;nan
61769;BME280;47669;48.712;9.016;2023-01-15T05:40:07;95292.09;;;6.27;nan
61769;BME280;47669;48.712;9.016;2023-01-15T05:42:33;95286.09;;;6.08;nan
61769;BME280;47669;48.712;9.016;2023-01-15T05:44:58;95295.41;;;6.04;nan
61769;BME280;47669;48.712;9.016;2023-01-15T05:47:23;95290.75;;;6.06;nan
61769;BME280;47669;48.712;9.016;2023-01-15T05:49:48;95288.00;;;5.83;nan
61769;BME280;47669;48.712;9.016;2023-01-15T05:52:14;95311.50;;;5.83;nan
61769;BME280;47669;48.712;9.016;2023-01-15T05:54:39;95299.16;;;5.71;nan
61769;BME280;47669;48.712;9.016;2023-01-15T05:57:04;95296.34;;;5.73;nan
61769;BME280;47669;48.712;9.016;2023-01-15T05:59:31;95305.28;;;5.65;nan
61769;BME280;47669;48.712;9.016;2023-01-15T06:01:57;95305.47;;;5.64;nan
61769;BME280;47669;48.712;9.016;2023-01-15T06:04:23;95315.50;;;5.67;nan
61769;BME280;47669;48.712;9.016;2023-01-15T06:06:50;95308.75;;;5.59;nan
61769;BME280;47669;48.712;9.016;2023-01-15T06:09:17;95311.56;;;5.58;nan
61769;BME280;47669;48.712;9.016;2023-01-15T06:11:43;95314.34;;;5.63;nan
61769;BME280;47669;48.712;9.016;2023-01-15T06:14:10;95312.53;;;5.45;nan
61769;BME280;47669;48.712;9.016;2023-01-15T06:16:37;95310.63;;;5.52;nan
61769;BME280;47669;48.712;9.016;2023-01-15T06:19:04;95321.34;;;5.44;nan
61769;BME280;47669;48.712;9.016;2023-01-15T06:21:31;95322.22;;;5.38;nan
61769;BME280;47669;48.712;9.016;2023-01-15T06:23:57;95324.97;;;5.43;nan
61769;BME280;47669;48.712;9.016;2023-01-15T06:26:22;95329.47;;;5.36;nan
61769;BME280;47669;48.712;9.016;2023-01-15T06:28:48;95335.91;;;5.33;nan
61769;BME280;47669;48.712;9.016;2023-01-15T06:31:16;95337.25;;;5.17;nan
61769;BME280;47669;48.712;9.016;2023-01-15T06:33:42;95350.94;;;5.38;nan
61769;BME280;47669;48.712;9.016;2023-01-15T06:36:10;95365.63;;;5.32;nan
61769;BME280;47669;48.712;9.016;2023-01-15T06:38:35;95362.25;;;5.31;nan
61769;BME280;47669;48.712;9.016;2023-01-15T06:41:02;95357.25;;;5.23;nan
61769;BME280;47669;48.712;9.016;2023-01-15T06:43:28;95366.53;;;5.19;nan
61769;BME280;47669;48.712;9.016;2023-01-15T06:46:12;95373.16;;;5.22;nan
61769;BME280;47669;48.712;9.016;2023-01-15T06:48:56;95367.13;;;5.21;nan
61769;BME280;47669;48.712;9.016;2023-01-15T06:51:22;95389.06;;;5.13;nan
61769;BME280;47669;48.712;9.016;2023-01-15T06:53:47;95387.41;;;5.19;nan
61769;BME280;47669;48.712;9.016;2023-01-15T06:56:13;95378.38;;;4.97;nan
61769;BME280;47669;48.712;9.016;2023-01-15T06:58:40;95390.13;;;5.06;nan
61769;BME280;47669;48.712;9.016;2023-01-15T07:01:08;95391.06;;;4.86;nan
61769;BME280;47669;48.712;9.016;2023-01-15T07:03:33;95406.09;;;4.91;nan
61769;BME280;47669;48.712;9.016;2023-01-15T07:05:58;95421.47;;;4.99;nan
61769;BME280;47669;48.712;9.016;2023-01-15T07:08:23;95413.84;;;5.29;nan
61769;BME280;47669;48.712;9.016;2023-01-15T07:10:49;95422.53;;;4.91;nan
61769;BME280;47669;48.712;9.016;2023-01-15T07:13:14;95428.66;;;4.72;nan
61769;BME280;47669;48.712;9.016;2023-01-15T07:15:39;95431.28;;;4.72;nan
61769;BME280;47669;48.712;9.016;2023-01-15T07:18:04;95431.31;;;4.65;nan
61769;BME280;47669;48.712;9.016;2023-01-15T07:20:30;95435.34;;;4.61;nan
61769;BME280;47669;48.712;9.016;2023-01-15T07:22:55;95446.78;;;4.60;nan
61769;BME280;47669;48.712;9.016;2023-01-15T07:25:21;95450.59;;;4.58;nan
61769;BME280;47669;48.712;9.016;2023-01-15T07:27:47;95465.25;;;4.45;nan
61769;BME280;47669;48.712;9.016;2023-01-15T07:30:13;95461.47;;;4.41;nan
61769;BME280;47669;48.712;9.016;2023-01-15T07:32:41;95458.47;;;4.44;nan
61769;BME280;47669;48.712;9.016;2023-01-15T07:35:07;95460.50;;;4.35;nan
61769;BME280;47669;48.712;9.016;2023-01-15T07:37:34;95481.72;;;4.46;nan
61769;BME280;47669;48.712;9.016;2023-01-15T07:39:59;95466.91;;;4.33;nan
61769;BME280;47669;48.712;9.016;2023-01-15T07:42:24;95461.75;;;4.26;nan
61769;BME280;47669;48.712;9.016;2023-01-15T07:45:08;95467.56;;;4.22;nan
61769;BME280;47669;48.712;9.016;2023-01-15T07:47:53;95480.75;;;4.33;nan
61769;BME280;47669;48.712;9.016;2023-01-15T07:50:37;95481.78;;;4.19;nan
61769;BME280;47669;48.712;9.016;2023-01-15T07:53:02;95488.78;;;4.32;nan
61769;BME280;47669;48.712;9.016;2023-01-15T07:55:27;95503.84;;;4.23;nan
61769;BME280;47669;48.712;9.016;2023-01-15T07:57:53;95499.25;;;4.19;nan
61769;BME280;47669;48.712;9.016;2023-01-15T08:00:20;95509.25;;;4.15;nan
61769;BME280;47669;48.712;9.016;2023-01-15T08:02:46;95506.84;;;4.13;nan
61769;BME280;47669;48.712;9.016;2023-01-15T08:05:15;95509.47;;;4.13;nan
61769;BME280;47669;48.712;9.016;2023-01-15T08:07:41;95516.66;;;4.25;nan
61769;BME280;47669;48.712;9.016;2023-01-15T08:10:11;95512.47;;;4.10;nan
61769;BME280;47669;48.712;9.016;2023-01-15T08:12:37;95518.50;;;4.11;nan
61769;BME280;47669;48.712;9.016;2023-01-15T08:15:21;95525.88;;;4.14;nan
61769;BME280;47669;48.712;9.016;2023-01-15T08:17:48;95528.69;;;4.19;nan
61769;BME280;47669;48.712;9.016;2023-01-15T08:20:19;95543.72;;;4.10;nan
61769;BME280;47669;48.712;9.016;2023-01-15T08:22:46;95526.28;;;4.18;nan
61769;BME280;47669;48.712;9.016;2023-01-15T08:25:13;95537.75;;;4.03;nan
61769;BME280;47669;48.712;9.016;2023-01-15T08:27:39;95531.50;;;4.04;nan
61769;BME280;47669;48.712;9.016;2023-01-15T08:30:08;95550.75;;;4.10;nan
61769;BME280;47669;48.712;9.016;2023-01-15T08:32:33;95538.94;;;4.07;nan
61769;BME280;47669;48.712;9.016;2023-01-15T08:34:59;95551.34;;;3.99;nan
61769;BME280;47669;48.712;9.016;2023-01-15T08:37:24;95555.94;;;4.10;nan
61769;BME280;47669;48.712;9.016;2023-01-15T08:39:49;95555.56;;;4.00;nan
61769;BME280;47669;48.712;9.016;2023-01-15T08:42:17;95558.78;;;3.95;nan
61769;BME280;47669;48.712;9.016;2023-01-15T08:44:42;95583.59;;;3.91;nan
61769;BME280;47669;48.712;9.016;2023-01-15T08:47:08;95584.59;;;3.97;nan
61769;BME280;47669;48.712;9.016;2023-01-15T08:49:33;95575.22;;;3.95;nan
61769;BME280;47669;48.712;9.016;2023-01-15T08:51:58;95587.03;;;3.91;nan
61769;BME280;47669;48.712;9.016;2023-01-15T08:54:24;95593.03;;;4.05;nan
61769;BME280;47669;48.712;9.016;2023-01-15T08:56:50;95600.03;;;3.98;nan
61769;BME280;47669;48.712;9.016;2023-01-15T08:59:15;95604.44;;;4.04;nan
61769;BME280;47669;48.712;9.016;2023-01-15T09:01:41;95608.88;;;4.17;nan
61769;BME280;47669;48.712;9.016;2023-01-15T09:04:08;95613.47;;;4.28;nan
61769;BME280;47669;48.712;9.016;2023-01-15T09:06:33;95611.25;;;4.25;nan
61769;BME280;47669;48.712;9.016;2023-01-15T09:08:59;95604.25;;;4.32;nan
61769;BME280;47669;48.712;9.016;2023-01-15T09:11:24;95601.84;;;4.31;nan
61769;BME280;47669;48.712;9.016;2023-01-15T09:13:50;95603.84;;;4.15;nan
61769;BME280;47669;48.712;9.016;2023-01-15T09:16:16;95595.41;;;4.20;nan
61769;BME280;47669;48.712;9.016;2023-01-15T09:18:42;95590.63;;;4.17;nan
61769;BME280;47669;48.712;9.016;2023-01-15T09:21:07;95599.03;;;4.26;nan
61769;BME280;47669;48.712;9.016;2023-01-15T09:23:33;95597.03;;;4.28;nan
61769;BME280;47669;48.712;9.016;2023-01-15T09:26:04;95628.09;;;4.29;nan
61769;BME280;47669;48.712;9.016;2023-01-15T09:28:31;95636.31;;;4.33;nan
61769;BME280;47669;48.712;9.016;2023-01-15T09:30:57;95636.13;;;4.34;nan
61769;BME280;47669;48.712;9.016;2023-01-15T09:33:23;95643.94;;;4.48;nan
61769;BME280;47669;48.712;9.016;2023-01-15T09:35:48;95651.16;;;4.32;nan
61769;BME280;47669;48.712;9.016;2023-01-15T09:38:15;95649.16;;;4.34;nan
61769;BME280;47669;48.712;9.016;2023-01-15T09:40:52;95643.72;;;4.29;nan
61769;BME280;47669;48.712;9.016;2023-01-15T09:43:45;95663.38;;;4.19;nan
61769;BME280;47669;48.712;9.016;2023-01-15T09:46:20;95652.56;;;4.28;nan
61769;BME280;47669;48.712;9.016;2023-01-15T09:48:57;95663.78;;;4.15;nan
61769;BME280;47669;48.712;9.016;2023-01-15T09:54:21;95661.56;;;4.06;nan
61769;BME280;47669;48.712;9.016;2023-01-15T09:56:50;95668.78;;;4.10;nan
61769;BME280;47669;48.712;9.016;2023-01-15T09:59:24;95671.97;;;3.99;nan
61769;BME280;47669;48.712;9.016;2023-01-15T10:01:53;95693.00;;;3.98;nan
61769;BME280;47669;48.712;9.016;2023-01-15T10:04:42;95692.03;;;4.05;nan
61769;BME280;47669;48.712;9.016;2023-01-15T10:07:24;95690.81;;;4.01;nan
61769;BME280;47669;48.712;9.016;2023-01-15T10:09:58;95678.59;;;4.02;nan
61769;BME280;47669;48.712;9.016;2023-01-15T10:12:27;95691.03;;;4.13;nan
61769;BME280;47669;48.712;9.016;2023-01-15T10:15:30;95697.00;;;4.00;nan
61769;BME280;47669;48.712;9.016;2023-01-15T10:17:58;95699.81;;;3.99;nan
61769;BME280;47669;48.712;9.016;2023-01-15T10:25:50;95717.44;;;3.90;nan
61769;BME280;47669;48.712;9.016;2023-01-15T10:28:25;95717.03;;;3.86;nan
61769;BME280;47669;48.712;9.016;2023-01-15T10:30:54;95710.56;;;3.62;nan
61769;BME280;47669;48.712;9.016;2023-01-15T10:33:38;95716.56;;;3.69;nan
61769;BME280;47669;48.712;9.016;2023-01-15T10:36:13;95723.41;;;3.70;nan
61769;BME280;47669;48.712;9.016;2023-01-15T10:43:58;95717.94;;;3.59;nan
61769;BME280;47669;48.712;9.016;2023-01-15T10:46:29;95718.31;;;3.55;nan
61769;BME280;47669;48.712;9.016;2023-01-15T10:49:09;95719.34;;;3.54;nan
61769;BME280;47669;48.712;9.016;2023-01-15T10:51:53;95737.09;;;3.44;nan
61769;BME280;47669;48.712;9.016;2023-01-15T10:54:41;95745.13;;;3.43;nan
61769;BME280;47669;48.712;9.016;2023-01-15T10:57:24;95735.50;;;3.43;nan
61769;BME280;47669;48.712;9.016;2023-01-15T10:59:58;95746.00;;;3.22;nan
61769;BME280;47669;48.712;9.016;2023-01-15T11:03:16;95770.47;;;2.71;nan
61769;BME280;47669;48.712;9.016;2023-01-15T11:05:36;95787.06;;;2.27;nan
61769;BME280;47669;48.712;9.016;2023-01-15T11:08:06;95790.97;;;2.38;nan
61769;BME280;47669;48.712;9.016;2023-01-15T11:10:32;95784.59;;;2.40;nan
61769;BME280;47669;48.712;9.016;2023-01-15T11:13:01;95789.00;;;2.40;nan
61769;BME280;47669;48.712;9.016;2023-01-15T11:15:53;95797.78;;;2.24;nan
61769;BME280;47669;48.712;9.016;2023-01-15T11:18:42;95799.66;;;2.08;nan
61769;BME280;47669;48.712;9.016;2023-01-15T11:21:28;95805.84;;;2.07;nan
61769;BME280;47669;48.712;9.016;2023-01-15T11:23:55;95820.00;;;2.05;nan
61769;BME280;47669;48.712;9.016;2023-01-15T11:26:24;95812.84;;;1.92;nan
61769;BME280;47669;48.712;9.016;2023-01-15T11:28:52;95822.78;;;1.88;nan
61769;BME280;47669;48.712;9.016;2023-01-15T11:31:18;95813.91;;;1.97;nan
61769;BME280;47669;48.712;9.016;2023-01-15T11:33:57;95827.50;;;2.00;nan
61769;BME280;47669;48.712;9.016;2023-01-15T11:36:25;95834.13;;;2.02;nan
61769;BME280;47669;48.712;9.016;2023-01-15T11:38:50;95817.25;;;1.91;nan
61769;BME280;47669;48.712;9.016;2023-01-15T11:41:36;95828.88;;;1.81;nan
61769;BME280;47669;48.712;9.016;2023-01-15T11:44:22;95829.78;;;1.88;nan
61769;BME280;47669;48.712;9.016;2023-01-15T11:47:25;95825.22;;;1.75;nan
61769;BME280;47669;48.712;9.016;2023-01-15T11:50:16;95822.88;;;1.95;nan
61769;BME280;47669;48.712;9.016;2023-01-15T11:53:01;95831.16;;;2.20;nan
61769;BME280;47669;48.712;9.016;2023-01-15T11:55:27;95826.97;;;2.04;nan
61769;BME280;47669;48.712;9.016;2023-01-15T11:57:53;95827.38;;;2.23;nan
61769;BME280;47669;48.712;9.016;2023-01-15T12:00:24;95823.94;;;2.01;nan
61769;BME280;47669;48.712;9.016;2023-01-15T12:02:52;95826.66;;;2.14;nan
61769;BME280;47669;48.712;9.016;2023-01-15T12:05:23;95833.72;;;1.99;nan
61769;BME280;47669;48.712;9.016;2023-01-15T12:07:51;95822.91;;;2.16;nan
61769;BME280;47669;48.712;9.016;2023-01-15T12:10:24;95821.13;;;2.17;nan
61769;BME280;47669;48.712;9.016;2023-01-15T12:13:27;95823.31;;;1.99;nan
61769;BME280;47669;48.712;9.016;2023-01-15T12:16:09;95821.69;;;1.97;nan
61769;BME280;47669;48.712;9.016;2023-01-15T12:22:06;95833.78;;;2.05;nan
61769;BME280;47669;48.712;9.016;2023-01-15T12:27:37;95831.16;;;2.20;nan
61769;BME280;47669;48.712;9.016;2023-01-15T12:30:13;95814.88;;;2.33;nan
61769;BME280;47669;48.712;9.016;2023-01-15T12:32:46;95806.16;;;2.19;nan
61769;BME280;47669;48.712;9.016;2023-01-15T12:35:27;95792.28;;;2.33;nan
61769;BME280;47669;48.712;9.016;2023-01-15T12:37:58;95784.00;;;2.23;nan
61769;BME280;47669;48.712;9.016;2023-01-15T12:40:27;95777.84;;;2.24;nan
61769;BME280;47669;48.712;9.016;2023-01-15T12:42:55;95794.72;;;2.35;nan
61769;BME280;47669;48.712;9.016;2023-01-15T12:45:48;95796.66;;;2.26;nan
61769;BME280;47669;48.712;9.016;2023-01-15T12:50:48;95803.19;;;2.22;nan
61769;BME280;47669;48.712;9.016;2023-01-15T13:01:58;95816.75;;;2.39;nan
61769;BME280;47669;48.712;9.016;2023-01-15T13:04:44;95820.78;;;2.63;nan
61769;BME280;47669;48.712;9.016;2023-01-15T13:07:18;95812.06;;;2.49;nan
61769;BME280;47669;48.712;9.016;2023-01-15T13:09:55;95818.84;;;2.72;nan
61769;BME280;47669;48.712;9.016;2023-01-15T13:12:24;95820.59;;;2.65;nan
61769;BME280;47669;48.712;9.016;2023-01-15T13:14:49;95826.00;;;2.91;nan
61769;BME280;47669;48.712;9.016;2023-01-15T13:17:23;95814.06;;;2.97;nan
61769;BME280;47669;48.712;9.016;2023-01-15T13:23:43;95821.84;;;2.69;nan
61769;BME280;47669;48.712;9.016;2023-01-15T13:36:48;95851.19;;;3.12;nan
61769;BME280;47669;48.712;9.016;2023-01-15T13:39:21;95854.03;;;3.18;nan
61769;BME280;47669;48.712;9.016;2023-01-15T13:41:48;95845.41;;;3.17;nan
61769;BME280;47669;48.712;9.016;2023-01-15T13:44:36;95862.97;;;3.71;nan
61769;BME280;47669;48.712;9.016;2023-01-15T13:47:09;95858.53;;;4.62;nan
61769;BME280;47669;48.712;9.016;2023-01-15T13:49:55;95845.44;;;5.75;nan
61769;BME280;47669;48.712;9.016;2023-01-15T13:52:27;95849.28;;;5.66;nan
61769;BME280;47669;48.712;9.016;2023-01-15T13:54:58;95850.03;;;6.00;nan
61769;BME280;47669;48.712;9.016;2023-01-15T13:57:35;95851.13;;;7.26;nan
61769;BME280;47669;48.712;9.016;2023-01-15T14:00:04;95853.38;;;6.59;nan
61769;BME280;47669;48.712;9.016;2023-01-15T14:02:36;95855.34;;;5.13;nan
61769;BME280;47669;48.712;9.016;2023-01-15T14:05:29;95846.84;;;6.36;nan
61769;BME280;47669;48.712;9.016;2023-01-15T14:07:55;95854.91;;;6.35;nan
61769;BME280;47669;48.712;9.016;2023-01-15T14:15:49;95857.63;;;6.08;nan
61769;BME280;47669;48.712;9.016;2023-01-15T14:19:03;95860.88;;;6.03;nan
61769;BME280;47669;48.712;9.016;2023-01-15T14:21:24;95863.56;;;4.90;nan
61769;BME280;47669;48.712;9.016;2023-01-15T14:26:47;95866.47;;;3.50;nan
61769;BME280;47669;48.712;9.016;2023-01-15T14:29:49;95873.28;;;3.51;nan
61769;BME280;47669;48.712;9.016;2023-01-15T14:34:59;95863.94;;;3.64;nan
61769;BME280;47669;48.712;9.016;2023-01-15T14:37:42;95874.84;;;3.46;nan
61769;BME280;47669;48.712;9.016;2023-01-15T14:40:20;95871.97;;;3.62;nan
61769;BME280;47669;48.712;9.016;2023-01-15T14:42:49;95867.81;;;3.46;nan
61769;BME280;47669;48.712;9.016;2023-01-15T14:45:38;95854.00;;;3.39;nan
61769;BME280;47669;48.712;9.016;2023-01-15T14:50:41;95860.22;;;3.45;nan
61769;BME280;47669;48.712;9.016;2023-01-15T14:56:02;95878.25;;;3.46;nan
61769;BME280;47669;48.712;9.016;2023-01-15T14:58:52;95858.34;;;3.32;nan
61769;BME280;47669;48.712;9.016;2023-01-15T15:03:57;95871.84;;;3.21;nan
61769;BME280;47669;48.712;9.016;2023-01-15T15:06:26;95872.09;;;3.26;nan
61769;BME280;47669;48.712;9.016;2023-01-15T15:08:57;95878.09;;;3.26;nan
61769;BME280;47669;48.712;9.016;2023-01-15T15:11:46;95883.44;;;3.18;nan